sensor_id;sensor_type;location;lat;lon;timestamp;pressure;altitude;pressure_sealevel;temperature;humidity
16094;BME280;8151;47.824;12.092;2024-03-07T00:00:15;96641.97;;;5.09;87.00
16094;BME280;8151;47.824;12.092;2024-03-07T00:02:46;96641.41;;;5.05;86.77
16094;BME280;8151;47.824;12.092;2024-03-07T00:05:18;96637.13;;;5.04;87.19
16094;BME280;8151;47.824;12.092;2024-03-07T00:07:47;96642.22;;;5.06;86.70
16094;BME280;8151;47.824;12.092;2024-03-07T00:10:16;96634.81;;;5.11;86.63
16094;BME280;8151;47.824;12.092;2024-03-07T00:12:45;96623.22;;;5.13;86.80
16094;BME280;8151;47.824;12.092;2024-03-07T00:15:15;96627.41;;;5.16;86.44
16094;BME280;8151;47.824;12.092;2024-03-07T00:17:45;96623.94;;;5.16;86.92
16094;BME280;8151;47.824;12.092;2024-03-07T00:20:13;96630.72;;;5.18;86.55
16094;BME280;8151;47.824;12.092;2024-03-07T00:22:44;96627.72;;;5.23;87.06
16094;BME280;8151;47.824;12.092;2024-03-07T00:25:13;96624.97;;;5.24;86.66
16094;BME280;8151;47.824;12.092;2024-03-07T00:27:46;96623.28;;;5.23;86.84
16094;BME280;8151;47.824;12.092;2024-03-07T00:30:15;96629.50;;;5.22;86.75
16094;BME280;8151;47.824;12.092;2024-03-07T00:32:46;96621.53;;;5.24;86.87
16094;BME280;8151;47.824;12.092;2024-03-07T00:35:16;96618.78;;;5.25;87.23
16094;BME280;8151;47.824;12.092;2024-03-07T00:37:47;96610.06;;;5.25;87.13
16094;BME280;8151;47.824;12.092;2024-03-07T00:40:16;96613.38;;;5.27;86.69
16094;BME280;8151;47.824;12.092;2024-03-07T00:42:43;96613.94;;;5.30;87.18
16094;BME280;8151;47.824;12.092;2024-03-07T00:45:12;96612.03;;;5.32;86.71
16094;BME280;8151;47.824;12.092;2024-03-07T00:47:40;96612.03;;;5.32;86.92
16094;BME280;8151;47.824;12.092;2024-03-07T00:50:09;96608.88;;;5.39;86.72
16094;BME280;8151;47.824;12.092;2024-03-07T00:52:38;96612.66;;;5.46;86.57
16094;BME280;8151;47.824;12.092;2024-03-07T00:55:09;96602.63;;;5.51;86.90
16094;BME280;8151;47.824;12.092;2024-03-07T00:57:37;96608.56;;;5.53;86.35
16094;BME280;8151;47.824;12.092;2024-03-07T01:00:06;96598.59;;;5.47;86.41
16094;BME280;8151;47.824;12.092;2024-03-07T01:02:41;96606.25;;;5.39;86.52
16094;BME280;8151;47.824;12.092;2024-03-07T01:05:11;96598.34;;;5.29;87.31
16094;BME280;8151;47.824;12.092;2024-03-07T01:07:41;96601.22;;;5.26;87.38
16094;BME280;8151;47.824;12.092;2024-03-07T01:10:12;96596.00;;;5.26;87.34
16094;BME280;8151;47.824;12.092;2024-03-07T01:12:41;96594.63;;;5.31;87.02
16094;BME280;8151;47.824;12.092;2024-03-07T01:15:10;96597.09;;;5.33;86.63
16094;BME280;8151;47.824;12.092;2024-03-07T01:17:39;96596.28;;;5.32;87.02
16094;BME280;8151;47.824;12.092;2024-03-07T01:20:09;96594.63;;;5.31;87.06
16094;BME280;8151;47.824;12.092;2024-03-07T01:22:39;96590.91;;;5.34;87.25
16094;BME280;8151;47.824;12.092;2024-03-07T01:25:08;96583.50;;;5.39;86.78
16094;BME280;8151;47.824;12.092;2024-03-07T01:27:37;96590.00;;;5.45;87.04
16094;BME280;8151;47.824;12.092;2024-03-07T01:30:07;96587.38;;;5.45;86.36
16094;BME280;8151;47.824;12.092;2024-03-07T01:32:36;96574.13;;;5.46;86.66
16094;BME280;8151;47.824;12.092;2024-03-07T01:35:05;96580.72;;;5.41;86.86
16094;BME280;8151;47.824;12.092;2024-03-07T01:37:35;96581.81;;;5.38;87.31
16094;BME280;8151;47.824;12.092;2024-03-07T01:40:04;96578.09;;;5.41;87.14
16094;BME280;8151;47.824;12.092;2024-03-07T01:42:33;96572.03;;;5.40;87.07
16094;BME280;8151;47.824;12.092;2024-03-07T01:45:04;96574.53;;;5.42;86.82
16094;BME280;8151;47.824;12.092;2024-03-07T01:47:35;96572.72;;;5.42;86.82
16094;BME280;8151;47.824;12.092;2024-03-07T01:50:07;96566.66;;;5.42;86.91
16094;BME280;8151;47.824;12.092;2024-03-07T01:52:36;96569.03;;;5.45;87.36
16094;BME280;8151;47.824;12.092;2024-03-07T01:55:07;96561.84;;;5.47;87.11
16094;BME280;8151;47.824;12.092;2024-03-07T01:57:38;96566.41;;;5.45;86.73
16094;BME280;8151;47.824;12.092;2024-03-07T02:00:09;96568.16;;;5.44;87.02
16094;BME280;8151;47.824;12.092;2024-03-07T02:02:37;96554.94;;;5.46;87.24
16094;BME280;8151;47.824;12.092;2024-03-07T02:05:06;96551.19;;;5.48;86.96
16094;BME280;8151;47.824;12.092;2024-03-07T02:07:35;96554.09;;;5.45;86.99
16094;BME280;8151;47.824;12.092;2024-03-07T02:10:04;96558.06;;;5.40;87.53
16094;BME280;8151;47.824;12.092;2024-03-07T02:12:33;96543.81;;;5.32;87.60
16094;BME280;8151;47.824;12.092;2024-03-07T02:15:02;96538.97;;;5.28;87.58
16094;BME280;8151;47.824;12.092;2024-03-07T02:17:32;96543.00;;;5.32;87.30
16094;BME280;8151;47.824;12.092;2024-03-07T02:20:01;96538.44;;;5.34;87.79
16094;BME280;8151;47.824;12.092;2024-03-07T02:22:32;96543.56;;;5.36;87.41
16094;BME280;8151;47.824;12.092;2024-03-07T02:25:01;96551.56;;;5.34;87.31
16094;BME280;8151;47.824;12.092;2024-03-07T02:27:29;96546.19;;;5.36;87.76
16094;BME280;8151;47.824;12.092;2024-03-07T02:29:57;96548.53;;;5.39;87.28
16094;BME280;8151;47.824;12.092;2024-03-07T02:32:26;96547.84;;;5.37;87.22
16094;BME280;8151;47.824;12.092;2024-03-07T02:34:55;96537.63;;;5.33;87.82
16094;BME280;8151;47.824;12.092;2024-03-07T02:37:23;96535.69;;;5.36;87.67
16094;BME280;8151;47.824;12.092;2024-03-07T02:39:53;96538.19;;;5.37;87.56
16094;BME280;8151;47.824;12.092;2024-03-07T02:42:21;96537.22;;;5.38;87.28
16094;BME280;8151;47.824;12.092;2024-03-07T02:44:50;96531.16;;;5.38;87.39
16094;BME280;8151;47.824;12.092;2024-03-07T02:47:20;96536.97;;;5.41;87.33
16094;BME280;8151;47.824;12.092;2024-03-07T02:49:51;96529.66;;;5.45;87.09
16094;BME280;8151;47.824;12.092;2024-03-07T02:52:19;96538.22;;;5.47;87.33
16094;BME280;8151;47.824;12.092;2024-03-07T02:54:47;96534.91;;;5.45;87.73
16094;BME280;8151;47.824;12.092;2024-03-07T02:57:17;96528.13;;;5.42;87.42
16094;BME280;8151;47.824;12.092;2024-03-07T02:59:46;96529.78;;;5.43;87.32
16094;BME280;8151;47.824;12.092;2024-03-07T03:02:14;96522.03;;;5.42;87.27
16094;BME280;8151;47.824;12.092;2024-03-07T03:04:43;96529.22;;;5.40;87.31
16094;BME280;8151;47.824;12.092;2024-03-07T03:07:11;96522.56;;;5.36;87.36
16094;BME280;8151;47.824;12.092;2024-03-07T03:09:40;96524.22;;;5.37;87.63
16094;BME280;8151;47.824;12.092;2024-03-07T03:12:10;96520.06;;;5.34;87.69
16094;BME280;8151;47.824;12.092;2024-03-07T03:14:40;96517.56;;;5.32;87.63
16094;BME280;8151;47.824;12.092;2024-03-07T03:17:10;96516.63;;;5.33;87.61
16094;BME280;8151;47.824;12.092;2024-03-07T03:19:39;96522.00;;;5.32;87.43
16094;BME280;8151;47.824;12.092;2024-03-07T03:22:07;96517.31;;;5.36;88.11
16094;BME280;8151;47.824;12.092;2024-03-07T03:24:35;96523.28;;;5.38;88.04
16094;BME280;8151;47.824;12.092;2024-03-07T03:27:04;96515.78;;;5.33;88.01
16094;BME280;8151;47.824;12.092;2024-03-07T03:29:32;96517.84;;;5.29;88.09
16094;BME280;8151;47.824;12.092;2024-03-07T03:32:02;96515.59;;;5.25;88.01
16094;BME280;8151;47.824;12.092;2024-03-07T03:34:31;96518.09;;;5.26;87.65
16094;BME280;8151;47.824;12.092;2024-03-07T03:37:00;96515.34;;;5.28;88.27
16094;BME280;8151;47.824;12.092;2024-03-07T03:39:29;96519.25;;;5.33;88.02
16094;BME280;8151;47.824;12.092;2024-03-07T03:41:57;96523.69;;;5.43;87.80
16094;BME280;8151;47.824;12.092;2024-03-07T03:44:26;96516.81;;;5.51;87.60
16094;BME280;8151;47.824;12.092;2024-03-07T03:46:54;96519.72;;;5.58;87.44
16094;BME280;8151;47.824;12.092;2024-03-07T03:49:24;96519.34;;;5.63;87.17
16094;BME280;8151;47.824;12.092;2024-03-07T03:51:52;96515.63;;;5.65;87.32
16094;BME280;8151;47.824;12.092;2024-03-07T03:54:21;96512.75;;;5.68;87.08
16094;BME280;8151;47.824;12.092;2024-03-07T03:56:50;96512.75;;;5.68;87.36
16094;BME280;8151;47.824;12.092;2024-03-07T03:59:19;96515.25;;;5.70;87.01
16094;BME280;8151;47.824;12.092;2024-03-07T04:01:47;96502.66;;;5.73;87.42
16094;BME280;8151;47.824;12.092;2024-03-07T04:04:16;96499.34;;;5.71;87.25
16094;BME280;8151;47.824;12.092;2024-03-07T04:06:46;96493.94;;;5.63;87.15
16094;BME280;8151;47.824;12.092;2024-03-07T04:09:15;96503.16;;;5.58;87.67
16094;BME280;8151;47.824;12.092;2024-03-07T04:11:44;96497.34;;;5.54;87.53
16094;BME280;8151;47.824;12.092;2024-03-07T04:14:13;96498.03;;;5.56;87.67
16094;BME280;8151;47.824;12.092;2024-03-07T04:16:41;96502.22;;;5.59;87.87
16094;BME280;8151;47.824;12.092;2024-03-07T04:19:10;96497.78;;;5.59;87.94
16094;BME280;8151;47.824;12.092;2024-03-07T04:21:38;96502.22;;;5.59;87.91
16094;BME280;8151;47.824;12.092;2024-03-07T04:24:08;96498.75;;;5.58;87.48
16094;BME280;8151;47.824;12.092;2024-03-07T04:26:36;96509.22;;;5.58;87.62
16094;BME280;8151;47.824;12.092;2024-03-07T04:29:05;96497.66;;;5.61;87.87
16094;BME280;8151;47.824;12.092;2024-03-07T04:31:33;96506.94;;;5.65;88.10
16094;BME280;8151;47.824;12.092;2024-03-07T04:34:02;96500.97;;;5.63;87.77
16094;BME280;8151;47.824;12.092;2024-03-07T04:36:30;96502.91;;;5.61;87.47
16094;BME280;8151;47.824;12.092;2024-03-07T04:38:59;96500.16;;;5.62;88.28
16094;BME280;8151;47.824;12.092;2024-03-07T04:41:33;96505.13;;;5.65;87.84
16094;BME280;8151;47.824;12.092;2024-03-07T04:44:03;96507.63;;;5.67;87.77
16094;BME280;8151;47.824;12.092;2024-03-07T04:46:31;96507.50;;;5.68;87.47
16094;BME280;8151;47.824;12.092;2024-03-07T04:49:00;96502.25;;;5.68;87.44
16094;BME280;8151;47.824;12.092;2024-03-07T04:51:28;96500.31;;;5.70;87.74
16094;BME280;8151;47.824;12.092;2024-03-07T04:53:57;96504.00;;;5.68;87.55
16094;BME280;8151;47.824;12.092;2024-03-07T04:56:25;96504.31;;;5.65;88.23
16094;BME280;8151;47.824;12.092;2024-03-07T04:58:55;96501.94;;;5.62;87.55
16094;BME280;8151;47.824;12.092;2024-03-07T05:01:23;96500.97;;;5.63;87.80
16094;BME280;8151;47.824;12.092;2024-03-07T05:03:52;96504.44;;;5.63;88.06
16094;BME280;8151;47.824;12.092;2024-03-07T05:06:20;96506.09;;;5.64;88.11
16094;BME280;8151;47.824;12.092;2024-03-07T05:08:49;96505.13;;;5.65;87.78
16094;BME280;8151;47.824;12.092;2024-03-07T05:11:18;96501.94;;;5.62;88.14
16094;BME280;8151;47.824;12.092;2024-03-07T05:13:47;96500.41;;;5.59;87.92
16094;BME280;8151;47.824;12.092;2024-03-07T05:16:17;96506.78;;;5.57;88.11
16094;BME280;8151;47.824;12.092;2024-03-07T05:18:46;96506.06;;;5.55;88.58
16094;BME280;8151;47.824;12.092;2024-03-07T05:21:17;96507.03;;;5.53;88.47
16094;BME280;8151;47.824;12.092;2024-03-07T05:24:02;96506.78;;;5.57;88.25
16094;BME280;8151;47.824;12.092;2024-03-07T05:26:31;96502.06;;;5.60;88.23
16094;BME280;8151;47.824;12.092;2024-03-07T05:29:02;96508.72;;;5.64;88.33
16094;BME280;8151;47.824;12.092;2024-03-07T05:31:36;96500.31;;;5.70;87.85
16094;BME280;8151;47.824;12.092;2024-03-07T05:34:05;96500.03;;;5.73;87.74
16094;BME280;8151;47.824;12.092;2024-03-07T05:36:35;96505.97;;;5.76;87.96
16094;BME280;8151;47.824;12.092;2024-03-07T05:39:11;96504.03;;;5.78;87.95
16094;BME280;8151;47.824;12.092;2024-03-07T05:41:40;96501.41;;;5.78;87.58
16094;BME280;8151;47.824;12.092;2024-03-07T05:44:09;96504.75;;;5.80;87.68
16094;BME280;8151;47.824;12.092;2024-03-07T05:46:39;96503.66;;;5.82;87.79
16094;BME280;8151;47.824;12.092;2024-03-07T05:49:13;96504.75;;;5.80;87.71
16094;BME280;8151;47.824;12.092;2024-03-07T05:51:42;96513.31;;;5.72;87.81
16094;BME280;8151;47.824;12.092;2024-03-07T05:54:12;96508.31;;;5.69;87.95
16094;BME280;8151;47.824;12.092;2024-03-07T05:56:41;96509.25;;;5.68;88.25
16094;BME280;8151;47.824;12.092;2024-03-07T05:59:10;96512.31;;;5.63;88.31
16094;BME280;8151;47.824;12.092;2024-03-07T06:01:40;96508.16;;;5.61;88.76
16094;BME280;8151;47.824;12.092;2024-03-07T06:04:09;96505.91;;;5.56;88.18
16094;BME280;8151;47.824;12.092;2024-03-07T06:06:39;96503.88;;;5.60;88.82
16094;BME280;8151;47.824;12.092;2024-03-07T06:09:09;96508.72;;;5.64;88.08
16094;BME280;8151;47.824;12.092;2024-03-07T06:11:41;96500.84;;;5.64;88.54
16094;BME280;8151;47.824;12.092;2024-03-07T06:14:10;96494.63;;;5.65;88.44
16094;BME280;8151;47.824;12.092;2024-03-07T06:16:42;96510.66;;;5.62;88.24
16094;BME280;8151;47.824;12.092;2024-03-07T06:19:10;96513.09;;;5.54;88.11
16094;BME280;8151;47.824;12.092;2024-03-07T06:21:40;96509.06;;;5.50;88.95
16094;BME280;8151;47.824;12.092;2024-03-07T06:24:09;96510.31;;;5.46;88.64
16094;BME280;8151;47.824;12.092;2024-03-07T06:26:41;96509.50;;;5.45;88.95
16094;BME280;8151;47.824;12.092;2024-03-07T06:29:17;96512.00;;;5.47;88.58
16094;BME280;8151;47.824;12.092;2024-03-07T06:31:47;96515.16;;;5.50;89.10
16094;BME280;8151;47.824;12.092;2024-03-07T06:34:17;96511.16;;;5.56;88.95
16094;BME280;8151;47.824;12.092;2024-03-07T06:36:45;96508.97;;;5.61;89.10
16094;BME280;8151;47.824;12.092;2024-03-07T06:39:14;96506.78;;;5.66;88.39
16094;BME280;8151;47.824;12.092;2024-03-07T06:41:42;96515.25;;;5.70;88.53
16094;BME280;8151;47.824;12.092;2024-03-07T06:44:12;96513.31;;;5.72;88.41
16094;BME280;8151;47.824;12.092;2024-03-07T06:46:41;96518.41;;;5.73;88.93
16094;BME280;8151;47.824;12.092;2024-03-07T06:49:11;96519.09;;;5.76;88.84
16094;BME280;8151;47.824;12.092;2024-03-07T06:51:39;96519.09;;;5.76;88.33
16094;BME280;8151;47.824;12.092;2024-03-07T06:54:08;96523.53;;;5.75;88.46
16094;BME280;8151;47.824;12.092;2024-03-07T06:56:36;96514.38;;;5.69;88.54
16094;BME280;8151;47.824;12.092;2024-03-07T06:59:07;96517.44;;;5.65;88.89
16094;BME280;8151;47.824;12.092;2024-03-07T07:01:35;96517.56;;;5.63;88.69
16094;BME280;8151;47.824;12.092;2024-03-07T07:04:04;96521.00;;;5.64;89.41
16094;BME280;8151;47.824;12.092;2024-03-07T07:06:37;96519.63;;;5.69;88.78
16094;BME280;8151;47.824;12.092;2024-03-07T07:09:05;96522.00;;;5.72;88.88
16094;BME280;8151;47.824;12.092;2024-03-07T07:11:34;96521.03;;;5.73;89.18
16094;BME280;8151;47.824;12.092;2024-03-07T07:14:02;96520.50;;;5.70;88.64
16094;BME280;8151;47.824;12.092;2024-03-07T07:16:31;96526.81;;;5.67;89.15
16094;BME280;8151;47.824;12.092;2024-03-07T07:19:02;96517.00;;;5.69;89.39
16094;BME280;8151;47.824;12.092;2024-03-07T07:21:30;96520.34;;;5.71;89.34
16094;BME280;8151;47.824;12.092;2024-03-07T07:24:00;96515.78;;;5.73;89.25
16094;BME280;8151;47.824;12.092;2024-03-07T07:26:29;96512.47;;;5.71;88.99
16094;BME280;8151;47.824;12.092;2024-03-07T07:28:59;96511.38;;;5.74;89.06
16094;BME280;8151;47.824;12.092;2024-03-07T07:31:28;96512.06;;;5.76;89.28
16094;BME280;8151;47.824;12.092;2024-03-07T07:33:56;96520.78;;;5.77;89.09
16094;BME280;8151;47.824;12.092;2024-03-07T07:36:24;96511.91;;;5.78;89.08
16094;BME280;8151;47.824;12.092;2024-03-07T07:38:57;96515.53;;;5.77;88.70
16094;BME280;8151;47.824;12.092;2024-03-07T07:41:27;96511.22;;;5.76;88.65
16094;BME280;8151;47.824;12.092;2024-03-07T07:43:56;96520.06;;;5.75;89.44
16094;BME280;8151;47.824;12.092;2024-03-07T07:46:24;96515.09;;;5.71;88.84
16094;BME280;8151;47.824;12.092;2024-03-07T07:48:53;96514.25;;;5.71;89.42
16094;BME280;8151;47.824;12.092;2024-03-07T07:51:22;96520.22;;;5.73;89.19
16094;BME280;8151;47.824;12.092;2024-03-07T07:53:52;96520.22;;;5.73;89.03
16094;BME280;8151;47.824;12.092;2024-03-07T07:56:24;96514.94;;;5.73;89.17
16094;BME280;8151;47.824;12.092;2024-03-07T07:58:57;96515.94;;;5.72;88.60
16094;BME280;8151;47.824;12.092;2024-03-07T08:01:25;96515.78;;;5.73;89.34
16094;BME280;8151;47.824;12.092;2024-03-07T08:03:54;96515.78;;;5.73;88.83
16094;BME280;8151;47.824;12.092;2024-03-07T08:06:22;96511.22;;;5.76;88.87
16094;BME280;8151;47.824;12.092;2024-03-07T08:08:51;96519.09;;;5.76;89.40
16094;BME280;8151;47.824;12.092;2024-03-07T08:11:19;96509.44;;;5.76;89.37
16094;BME280;8151;47.824;12.092;2024-03-07T08:13:48;96515.53;;;5.77;88.62
16094;BME280;8151;47.824;12.092;2024-03-07T08:16:19;96521.22;;;5.82;88.67
16094;BME280;8151;47.824;12.092;2024-03-07T08:18:47;96518.28;;;5.85;89.06
16094;BME280;8151;47.824;12.092;2024-03-07T08:21:16;96517.06;;;5.89;88.80
16094;BME280;8151;47.824;12.092;2024-03-07T08:23:44;96512.50;;;5.91;88.69
16094;BME280;8151;47.824;12.092;2024-03-07T08:26:13;96520.25;;;5.92;88.39
16094;BME280;8151;47.824;12.092;2024-03-07T08:28:48;96512.25;;;5.94;88.83
16094;BME280;8151;47.824;12.092;2024-03-07T08:31:18;96520.84;;;5.96;88.45
16094;BME280;8151;47.824;12.092;2024-03-07T08:33:47;96518.09;;;5.98;88.47
16094;BME280;8151;47.824;12.092;2024-03-07T08:36:15;96520.59;;;5.99;88.70
16094;BME280;8151;47.824;12.092;2024-03-07T08:38:43;96518.91;;;5.98;88.80
16094;BME280;8151;47.824;12.092;2024-03-07T08:41:13;96516.41;;;5.97;88.58
16094;BME280;8151;47.824;12.092;2024-03-07T08:43:42;96517.22;;;5.87;88.83
16094;BME280;8151;47.824;12.092;2024-03-07T08:46:10;96514.53;;;5.78;89.14
16094;BME280;8151;47.824;12.092;2024-03-07T08:48:40;96506.25;;;5.72;89.12
16094;BME280;8151;47.824;12.092;2024-03-07T08:51:09;96517.44;;;5.75;88.92
16094;BME280;8151;47.824;12.092;2024-03-07T08:53:38;96505.44;;;5.72;89.36
16094;BME280;8151;47.824;12.092;2024-03-07T08:56:06;96517.72;;;5.71;88.53
16094;BME280;8151;47.824;12.092;2024-03-07T08:58:35;96506.13;;;5.74;89.29
16094;BME280;8151;47.824;12.092;2024-03-07T09:01:03;96513.59;;;5.79;88.75
16094;BME280;8151;47.824;12.092;2024-03-07T09:03:32;96507.09;;;5.83;88.62
16094;BME280;8151;47.824;12.092;2024-03-07T09:06:02;96501.31;;;5.89;88.92
16094;BME280;8151;47.824;12.092;2024-03-07T09:08:30;96503.97;;;5.99;88.77
16094;BME280;8151;47.824;12.092;2024-03-07T09:10:59;96501.78;;;6.14;88.64
16094;BME280;8151;47.824;12.092;2024-03-07T09:13:28;96506.09;;;6.24;88.28
16094;BME280;8151;47.824;12.092;2024-03-07T09:15:56;96499.59;;;6.28;88.67
16094;BME280;8151;47.824;12.092;2024-03-07T09:18:24;96499.03;;;6.35;88.51
16094;BME280;8151;47.824;12.092;2024-03-07T09:20:53;96494.88;;;6.42;89.06
16094;BME280;8151;47.824;12.092;2024-03-07T09:23:23;96497.34;;;6.53;88.93
16094;BME280;8151;47.824;12.092;2024-03-07T09:25:52;96489.88;;;6.58;88.90
16094;BME280;8151;47.824;12.092;2024-03-07T09:28:20;96491.56;;;6.59;89.20
16094;BME280;8151;47.824;12.092;2024-03-07T09:30:49;96495.81;;;6.60;88.89
16094;BME280;8151;47.824;12.092;2024-03-07T09:33:18;96493.75;;;6.64;89.23
16094;BME280;8151;47.824;12.092;2024-03-07T09:35:47;96490.41;;;6.72;88.82
16094;BME280;8151;47.824;12.092;2024-03-07T09:38:16;96489.97;;;6.76;89.07
16094;BME280;8151;47.824;12.092;2024-03-07T09:40:46;96492.22;;;6.81;88.70
16094;BME280;8151;47.824;12.092;2024-03-07T09:43:17;96487.78;;;6.81;89.02
16094;BME280;8151;47.824;12.092;2024-03-07T09:45:46;96494.16;;;6.79;88.79
16094;BME280;8151;47.824;12.092;2024-03-07T09:48:16;96492.91;;;6.73;88.75
16094;BME280;8151;47.824;12.092;2024-03-07T09:50:48;96500.50;;;6.76;88.64
16094;BME280;8151;47.824;12.092;2024-03-07T09:53:19;96492.63;;;6.76;88.60
16094;BME280;8151;47.824;12.092;2024-03-07T09:55:50;96496.78;;;6.79;88.76
16094;BME280;8151;47.824;12.092;2024-03-07T09:58:19;96497.31;;;6.73;88.58
16094;BME280;8151;47.824;12.092;2024-03-07T10:00:49;96494.56;;;6.64;88.61
16094;BME280;8151;47.824;12.092;2024-03-07T10:03:20;96497.63;;;6.69;88.59
16094;BME280;8151;47.824;12.092;2024-03-07T10:05:51;96495.53;;;6.73;88.42
16094;BME280;8151;47.824;12.092;2024-03-07T10:08:21;96502.19;;;6.77;88.49
16094;BME280;8151;47.824;12.092;2024-03-07T10:10:53;96503.69;;;6.80;88.22
16094;BME280;8151;47.824;12.092;2024-03-07T10:13:22;96501.19;;;6.78;87.74
16094;BME280;8151;47.824;12.092;2024-03-07T10:15:53;96501.50;;;6.65;88.01
16094;BME280;8151;47.824;12.092;2024-03-07T10:18:23;96504.28;;;6.64;88.33
16094;BME280;8151;47.824;12.092;2024-03-07T10:20:53;96502.31;;;6.66;87.91
16094;BME280;8151;47.824;12.092;2024-03-07T10:23:22;96503.00;;;6.68;87.67
16094;BME280;8151;47.824;12.092;2024-03-07T10:25:53;96497.22;;;6.64;87.97
16094;BME280;8151;47.824;12.092;2024-03-07T10:28:22;96498.03;;;6.65;87.91
16094;BME280;8151;47.824;12.092;2024-03-07T10:30:51;96495.69;;;6.72;87.87
16094;BME280;8151;47.824;12.092;2024-03-07T10:33:19;96501.75;;;6.82;87.35
16094;BME280;8151;47.824;12.092;2024-03-07T10:35:48;96498.41;;;6.89;87.16
16094;BME280;8151;47.824;12.092;2024-03-07T10:38:17;96492.88;;;6.93;86.88
16094;BME280;8151;47.824;12.092;2024-03-07T10:40:47;96494.66;;;7.02;86.96
16094;BME280;8151;47.824;12.092;2024-03-07T10:43:22;96499.47;;;7.06;86.55
16094;BME280;8151;47.824;12.092;2024-03-07T10:45:53;96492.00;;;7.12;86.79
16094;BME280;8151;47.824;12.092;2024-03-07T10:48:29;96492.78;;;7.22;86.39
16094;BME280;8151;47.824;12.092;2024-03-07T10:51:05;96495.25;;;7.33;86.28
16094;BME280;8151;47.824;12.092;2024-03-07T10:53:40;96495.19;;;7.43;85.95
16094;BME280;8151;47.824;12.092;2024-03-07T10:56:33;96487.69;;;7.48;85.82
16094;BME280;8151;47.824;12.092;2024-03-07T10:59:16;96491.31;;;7.47;86.14
16094;BME280;8151;47.824;12.092;2024-03-07T11:01:49;96486.72;;;7.49;85.99
16094;BME280;8151;47.824;12.092;2024-03-07T11:04:22;96484.31;;;7.56;86.02
16094;BME280;8151;47.824;12.092;2024-03-07T11:06:51;96481.13;;;7.52;85.90
16094;BME280;8151;47.824;12.092;2024-03-07T11:09:21;96478.50;;;7.52;85.96
16094;BME280;8151;47.824;12.092;2024-03-07T11:11:56;96470.72;;;7.60;85.99
16094;BME280;8151;47.824;12.092;2024-03-07T11:14:29;96470.41;;;7.63;85.40
16094;BME280;8151;47.824;12.092;2024-03-07T11:16:59;96470.41;;;7.63;85.51
16094;BME280;8151;47.824;12.092;2024-03-07T11:19:29;96462.16;;;7.58;85.84
16094;BME280;8151;47.824;12.092;2024-03-07T11:21:59;96463.50;;;7.62;86.06
16094;BME280;8151;47.824;12.092;2024-03-07T11:24:30;96462.63;;;7.72;85.74
16094;BME280;8151;47.824;12.092;2024-03-07T11:27:02;96460.91;;;7.80;85.43
16094;BME280;8151;47.824;12.092;2024-03-07T11:29:43;96452.25;;;7.88;85.06
16094;BME280;8151;47.824;12.092;2024-03-07T11:32:15;96452.19;;;7.98;84.81
16094;BME280;8151;47.824;12.092;2024-03-07T11:34:45;96443.00;;;8.02;84.86
16094;BME280;8151;47.824;12.092;2024-03-07T11:37:18;96446.84;;;8.07;84.74
16094;BME280;8151;47.824;12.092;2024-03-07T11:39:50;96446.63;;;8.19;84.34
16094;BME280;8151;47.824;12.092;2024-03-07T11:42:24;96435.31;;;8.26;84.26
16094;BME280;8151;47.824;12.092;2024-03-07T11:45:02;96437.81;;;8.28;84.01
16094;BME280;8151;47.824;12.092;2024-03-07T11:47:36;96432.31;;;8.21;84.25
16094;BME280;8151;47.824;12.092;2024-03-07T11:50:06;96434.06;;;8.13;84.46
16094;BME280;8151;47.824;12.092;2024-03-07T11:52:39;96433.06;;;8.14;84.68
16094;BME280;8151;47.824;12.092;2024-03-07T11:55:09;96431.94;;;8.16;84.50
16094;BME280;8151;47.824;12.092;2024-03-07T11:57:38;96424.53;;;8.20;84.65
16094;BME280;8151;47.824;12.092;2024-03-07T12:00:10;96427.84;;;8.22;84.16
16094;BME280;8151;47.824;12.092;2024-03-07T12:02:41;96422.44;;;8.23;84.06
16094;BME280;8151;47.824;12.092;2024-03-07T12:05:10;96413.69;;;8.23;84.39
16094;BME280;8151;47.824;12.092;2024-03-07T12:07:44;96421.75;;;8.21;84.28
16094;BME280;8151;47.824;12.092;2024-03-07T12:10:12;96420.94;;;8.21;84.04
16094;BME280;8151;47.824;12.092;2024-03-07T12:12:42;96418.31;;;8.21;84.38
16094;BME280;8151;47.824;12.092;2024-03-07T12:15:12;96406.94;;;8.20;84.39
16094;BME280;8151;47.824;12.092;2024-03-07T12:17:47;96411.53;;;8.18;84.32
16094;BME280;8151;47.824;12.092;2024-03-07T12:20:18;96406.09;;;8.20;84.23
16094;BME280;8151;47.824;12.092;2024-03-07T12:22:59;96405.28;;;8.19;84.48
16094;BME280;8151;47.824;12.092;2024-03-07T12:25:30;96406.34;;;8.08;84.50
16094;BME280;8151;47.824;12.092;2024-03-07T12:28:04;96400.41;;;8.06;84.42
16094;BME280;8151;47.824;12.092;2024-03-07T12:30:35;96405.50;;;8.08;84.22
16094;BME280;8151;47.824;12.092;2024-03-07T12:33:06;96397.97;;;8.13;84.10
16094;BME280;8151;47.824;12.092;2024-03-07T12:35:36;96400.31;;;8.16;83.97
16094;BME280;8151;47.824;12.092;2024-03-07T12:38:04;96399.19;;;8.19;84.08
16094;BME280;8151;47.824;12.092;2024-03-07T12:40:33;96400.81;;;8.20;83.50
16094;BME280;8151;47.824;12.092;2024-03-07T12:43:12;96395.41;;;8.21;83.50
16094;BME280;8151;47.824;12.092;2024-03-07T12:45:44;96393.28;;;8.25;83.69
16094;BME280;8151;47.824;12.092;2024-03-07T12:48:13;96387.53;;;8.29;83.61
16094;BME280;8151;47.824;12.092;2024-03-07T12:50:45;96384.75;;;8.31;82.82
16094;BME280;8151;47.824;12.092;2024-03-07T12:53:17;96385.75;;;8.30;83.54
16094;BME280;8151;47.824;12.092;2024-03-07T12:55:46;96386.59;;;8.31;83.35
16094;BME280;8151;47.824;12.092;2024-03-07T12:58:15;96378.28;;;8.25;83.22
16094;BME280;8151;47.824;12.092;2024-03-07T13:00:45;96384.56;;;8.24;83.48
16094;BME280;8151;47.824;12.092;2024-03-07T13:03:14;96382.06;;;8.23;83.37
16094;BME280;8151;47.824;12.092;2024-03-07T13:05:42;96376.13;;;8.21;83.34
16094;BME280;8151;47.824;12.092;2024-03-07T13:08:11;96379.59;;;8.21;83.66
16094;BME280;8151;47.824;12.092;2024-03-07T13:10:39;96379.16;;;8.26;83.19
16094;BME280;8151;47.824;12.092;2024-03-07T13:13:09;96380.09;;;8.43;83.09
16094;BME280;8151;47.824;12.092;2024-03-07T13:15:38;96373.03;;;8.70;82.47
16094;BME280;8151;47.824;12.092;2024-03-07T13:18:10;96367.22;;;8.92;81.83
16094;BME280;8151;47.824;12.092;2024-03-07T13:20:40;96372.09;;;9.13;81.76
16094;BME280;8151;47.824;12.092;2024-03-07T13:23:10;96370.00;;;9.25;81.75